• Join FlightAware (Why Join?)
  • Login
  • US Flag 
01:56AM EDT


 

Airport Tracker/Info


-or-


 

Live Flight TrackerFlight Track Log ✈ SWA508 ✈ 23-Apr-2013 ✈ KPHL - KBNA

Flight Track Log - Related Links

Times and Time Zones

All times are in EDT time to prevent confusion due to time zone crossing. See the SWA508 flight status page for this flight to view local times or setup timezone preferences in your user account.

Time Position Orientation Groundspeed Altitude Reporting Facility
EDT Latitude Longitude Course Direction KTS MPH feet Rate Location/Type
03:53PM 39.8833 -75.2167 90° East 151 174 1,000  Level Philadelphia TRACON
03:54PM 39.8833 -75.2000 90° East 162 186 1,700 2,220 Climbing Philadelphia TRACON
03:54PM 39.8881 -75.1753 76° East 199 229 2,700 3,180 Climbing FAA TRACON SMA TRACON (SMA)
03:55PM 39.8975 -75.1572 56° Northeast 212 244 3,900 3,420 Climbing FAA TRACON SMA TRACON (SMA)
03:55PM 39.9153 -75.1556 North 226 260 5,000 3,840 Climbing FAA TRACON SMA TRACON (SMA)
03:55PM 39.9286 -75.1717 317° Northwest 215 247 6,400 3,960 Climbing FAA TRACON SMA TRACON (SMA)
03:56PM 39.9322 -75.2033 278° West 254 292 7,600 3,120 Climbing FAA TRACON SMA TRACON (SMA)
03:56PM 39.9322 -75.2317 270° West 268 308 8,500 2,520 Climbing FAA TRACON SMA TRACON (SMA)
03:56PM 39.9308 -75.2689 267° West 273 314 9,300 1,920 Climbing FAA TRACON SMA TRACON (SMA)
03:57PM 39.9297 -75.2994 267° West 278 320 9,800 1,020 Climbing FAA TRACON SMA TRACON (SMA)
03:57PM 39.9286 -75.3322 267° West 303 349 10,000 300 Climbing FAA TRACON SMA TRACON (SMA)
03:57PM 39.9275 -75.3739 268° West 314 361 10,000  Level FAA TRACON SMA TRACON (SMA)
03:58PM 39.9264 -75.4094 268° West 314 361 10,000  Level FAA TRACON SMA TRACON (SMA)
03:58PM 39.9250 -75.4531 268° West 313 360 10,000  Level FAA TRACON SMA TRACON (SMA)
03:58PM 39.9239 -75.4878 268° West 313 360 10,000  Level FAA TRACON SMA TRACON (SMA)
03:59PM 39.9228 -75.5222 268° West 313 360 10,000  Level FAA TRACON SMA TRACON (SMA)
03:59PM 39.9211 -75.5650 267° West 313 360 10,000  Level FAA TRACON SMA TRACON (SMA)
03:59PM 39.9203 -75.6011 268° West 315 362 10,000  Level FAA TRACON SMA TRACON (SMA)
04:00PM 39.9192 -75.6361 268° West 315 362 10,000  Level FAA TRACON SMA TRACON (SMA)
04:00PM 39.9183 -75.6708 268° West 315 362 10,000 60 Level FAA TRACON SMA TRACON (SMA)
04:01PM 39.9158 -75.7503 268° West 314 361 10,100 1,200 Climbing FAA TRACON SMA TRACON (SMA)
04:01PM 39.9158 -75.7933 270° West 316 364 11,200 3,600 Climbing FAA TRACON SMA TRACON (SMA)
04:01PM 39.9153 -75.8300 269° West 321 369 12,600 3,900 Climbing FAA TRACON SMA TRACON (SMA)
04:02PM 39.9142 -75.8669 268° West 327 376 13,900 3,720 Climbing FAA TRACON SMA TRACON (SMA)
04:02PM 39.9133 -75.9042 268° West 333 383 15,100 3,900 Climbing FAA TRACON SMA TRACON (SMA)
04:02PM 39.9125 -75.9475 269° West 339 390 16,500 3,720 Climbing FAA TRACON SMA TRACON (SMA)
04:03PM 39.9117 -75.9886 268° West 345 397 17,600 2,400 Climbing FAA TRACON SMA TRACON (SMA)
04:03PM 39.9114 -76.0206 269° West 353 406 18,100 480 Climbing FAA TRACON SMA TRACON (SMA)
04:04PM 39.9114 -76.0206 108° East 353 406 18,100 1,860 Level FAA TRACON SMA TRACON (SMA)
04:06PM 39.9150 -76.3925 271° West 388 447 23,100 2,640 Climbing New York Center
04:07PM 39.9189 -76.5281 272° West 388 447 26,200 2,580 Climbing New York Center
04:08PM 39.9261 -76.6722 274° West 388 447 28,400 2,280 Climbing New York Center
04:09PM 39.9333 -76.8192 274° West 395 455 30,800 2,760 Climbing New York Center
04:10PM 39.9156 -76.9636 261° West 402 463 34,000 1,980 Climbing New York Center
04:12PM 39.8042 -77.2686 245° Southwest 427 491 37,000 1,800 Climbing Washington Center
04:13PM 39.7397 -77.4022 238° Southwest 432 497 39,700 1,500 Climbing Washington Center
04:14PM 39.6794 -77.5247 237° Southwest 432 497 40,000 120 Climbing Washington Center
04:15PM 39.6169 -77.6522 238° Southwest 421 484 40,000  Level Washington Center
04:16PM 39.5583 -77.7772 239° Southwest 421 484 40,000  Level Washington Center
04:17PM 39.4958 -77.8989 236° Southwest 421 484 40,000  Level Washington Center
04:18PM 39.4414 -78.0128 238° Southwest 421 484 40,000  Level Washington Center
04:19PM 39.3783 -78.1397 237° Southwest 421 484 40,000  Level Washington Center
04:20PM 39.3172 -78.2661 238° Southwest 421 484 40,000  Level Washington Center
04:21PM 39.2517 -78.3953 237° Southwest 427 491 40,000  Level Washington Center
04:22PM 39.1864 -78.5186 236° Southwest 427 491 40,000  Level Washington Center
04:23PM 39.1269 -78.6472 239° Southwest 427 491 40,000  Level Washington Center
04:24PM 39.0919 -78.7850 252° West 422 486 40,000  Level Washington Center
04:25PM 39.0567 -78.9303 253° West 417 480 40,000  Level Washington Center
04:27PM 38.9903 -79.2078 253° West 417 480 40,000  Level Washington Center
04:28PM 38.9547 -79.3503 252° West 412 474 40,000  Level Washington Center
04:29PM 38.9192 -79.4897 252° West 412 474 40,000  Level Washington Center
04:30PM 38.8825 -79.6478 253° West 422 486 40,000  Level Washington Center
04:31PM 38.8461 -79.7978 253° West 422 486 40,000  Level Washington Center
04:32PM 38.8119 -79.9397 253° West 422 486 40,000  Level Washington Center
04:34PM 38.7244 -80.2656 251° West 426 490 40,000  Level Indianapolis Center
04:35PM 38.6803 -80.4392 252° West 425 489 40,000  Level Indianapolis Center
04:36PM 38.6433 -80.5819 252° West 422 486 40,000  Level Indianapolis Center
04:37PM 38.6056 -80.7244 251° West 421 484 40,000 -120 Level Indianapolis Center
04:38PM 38.5689 -80.8656 252° West 418 481 39,800 -960 Descending Indianapolis Center
04:39PM 38.5331 -81.0039 252° West 412 474 38,100 -900 Descending Indianapolis Center
04:40PM 38.4997 -81.1322 252° West 386 444 38,000 -60 Descending Indianapolis Center
04:41PM 38.4656 -81.2617 251° West 381 438 38,000  Level Indianapolis Center
04:42PM 38.4239 -81.4175 251° West 383 441 38,000  Level Indianapolis Center
04:43PM 38.3894 -81.5475 251° West 383 441 38,000  Level Indianapolis Center
04:44PM 38.3547 -81.6775 251° West 383 441 38,000  Level Indianapolis Center
04:46PM 38.3203 -81.8056 251° West 381 438 38,000  Level Indianapolis Center
04:47PM 38.2856 -81.9322 251° West 378 435 38,000  Level Indianapolis Center
04:48PM 38.2506 -82.0594 251° West 378 435 38,000 -60 Level Indianapolis Center
04:49PM 38.2164 -82.1864 251° West 378 435 37,900  Descending Indianapolis Center
04:50PM 38.1811 -82.3122 250° West 378 435 38,000  Climbing Indianapolis Center
04:51PM 38.1400 -82.4642 251° West 377 434 38,000  Level Indianapolis Center
04:52PM 38.1086 -82.5769 251° West 379 436 38,000  Level Indianapolis Center
04:53PM 38.0672 -82.7231 250° West 379 436 38,000  Level Indianapolis Center
04:54PM 38.0317 -82.8497 250° West 382 440 38,000  Level Indianapolis Center
04:56PM 37.9592 -83.1033 250° West 383 441 38,000 -360 Level Indianapolis Center
04:57PM 37.9239 -83.2297 251° West 380 437 37,000 -1,020 Descending Indianapolis Center
04:58PM 37.8608 -83.3636 239° Southwest 383 441 35,900 -1,020 Descending Indianapolis Center
04:59PM 37.7994 -83.4744 235° Southwest 383 441 35,000 -960 Descending Indianapolis Center
05:00PM 37.7381 -83.5869 235° Southwest 388 447 34,000 -540 Descending Indianapolis Center
05:01PM 37.6747 -83.7000 235° Southwest 393 452 34,000  Level Indianapolis Center
05:02PM 37.6128 -83.8122 235° Southwest 391 450 34,000  Level Indianapolis Center
05:03PM 37.5381 -83.9439 234° Southwest 393 452 34,000 -300 Level Indianapolis Center
05:04PM 37.4750 -84.0567 235° Southwest 395 455 33,400 -540 Descending Indianapolis Center
05:05PM 37.4111 -84.1725 235° Southwest 401 461 33,000 -240 Descending Indianapolis Center
05:06PM 37.3456 -84.2875 234° Southwest 405 466 33,000  Level Indianapolis Center
05:07PM 37.2803 -84.4033 235° Southwest 405 466 33,000  Level Indianapolis Center
05:08PM 37.2031 -84.5403 235° Southwest 410 472 33,000  Level Indianapolis Center
05:09PM 37.1367 -84.6553 234° Southwest 409 471 33,000  Level Indianapolis Center
05:10PM 37.0681 -84.7731 234° Southwest 416 479 33,000  Level Indianapolis Center
05:11PM 37.0011 -84.8936 235° Southwest 411 473 33,000 -1,080 Level Indianapolis Center
05:12PM 36.9347 -85.0081 234° Southwest 409 471 30,800 -2,400 Descending Indianapolis Center
05:13PM 36.8778 -85.1289 240° Southwest 403 464 28,100 -2,640 Descending Indianapolis Center
05:14PM 36.8231 -85.2467 240° Southwest 395 455 25,400 -2,880 Descending Indianapolis Center
05:15PM 36.7597 -85.3836 240° Southwest 381 438 22,300 -1,680 Descending Indianapolis Center
05:17PM 36.7086 -85.4914 239° Southwest 365 420 22,000 -540 Descending Indianapolis Center
05:18PM 36.6581 -85.5975 239° Southwest 359 413 21,200 -1,500 Descending Indianapolis Center
05:19PM 36.6083 -85.7017 239° Southwest 352 405 18,900 -2,280 Descending Indianapolis Center
05:20PM 36.5608 -85.8017 239° Southwest 341 392 16,600 -2,340 Descending Indianapolis Center
05:21PM 36.5144 -85.9058 241° Southwest 330 380 14,100 -2,340 Descending Memphis Center
05:22PM 36.4697 -85.9958 238° Southwest 321 369 11,900 -1,920 Descending Memphis Center
05:23PM 36.4250 -86.0886 239° Southwest 310 357 10,300 -1,380 Descending Memphis Center
05:24PM 36.3878 -86.1628 238° Southwest 276 318 9,200 -1,320 Descending Memphis Center
05:25PM 36.3589 -86.2364 244° Southwest 253 291 7,700 -1,500 Descending Memphis Center
05:26PM 36.3303 -86.3100 244° Southwest 248 285 6,300 -1,500 Descending Memphis Center
05:27PM 36.2994 -86.3914 245° Southwest 256 295 4,700 -1,200 Descending Memphis Center
05:28PM 36.2686 -86.4675 243° Southwest 256 295 4,000 -360 Descending Memphis Center
05:29PM 36.2456 -86.5303 246° West 226 260 4,000 -420 Level Memphis Center
05:30PM 36.2222 -86.5856 242° Southwest 193 222 3,200 -900 Descending Memphis Center
05:31PM 36.2067 -86.6222 242° Southwest 158 182 2,200 -900 Descending Memphis Center
05:32PM 36.1758 -86.6417 207° Southwest 129 148 1,500 -720 Descending Memphis Center
05:33PM 36.1408 -86.6561 198° South 129 148 800 -420 Descending Memphis Center
05:34PM 36.1019 -86.6758 202° Southwest 129 148 700 -120 Descending Memphis Center
05:36PM 36.1167 -86.6667 287° West  Level FlightAware Approximate
05:43PM 36.1245 -86.6782 287° West  Level Estimated
05:44PM 36.1245 -86.6782 287° West  Level Estimated
05:45PM 36.1245 -86.6782 287° West  Level Estimated
05:46PM 36.1245 -86.6782 287° West  Level Estimated
05:47PM 36.1245 -86.6782 287° West  Level Estimated
05:48PM 36.1245 -86.6782 287° West  Level Estimated